Time;durP1;ratioP1;P1;durP2;ratioP2;P2;SDS_P1;SDS_P2;PMS_P1;PMS_P2;Temp;Humidity;BMP_temperature;BMP_pressure;BME280_temperature;BME280_humidity;BME280_pressure;Samples;Min_cycle;Max_cycle;Signal;HPM_P1;HPM_P2
2021/05/06 00:32:35;;;;;;;9.87;6.20;;;6.30;85.50;;;;;;4977091;28;20485;-86
2021/05/06 00:35:00;;;;;;;9.03;5.80;;;6.30;85.40;;;;;;4976582;28;20019;-86
2021/05/06 00:37:26;;;;;;;9.93;6.20;;;6.30;85.40;;;;;;4959768;28;20023;-85
2021/05/06 00:39:57;;;;;;;11.90;6.90;;;6.20;85.60;;;;;;4976614;28;20037;-87
2021/05/06 00:42:35;;;;;;;10.00;6.87;;;6.20;85.80;;;;;;4960397;28;20042;-87
2021/05/06 00:56:21;;;;;;;10.70;6.53;;;6.20;85.90;;;;;;4976639;28;20126;-87
2021/05/06 01:06:46;;;;;;;9.73;5.70;;;6.20;86.60;;;;;;4984985;28;19913;-87
2021/05/06 01:09:13;;;;;;;12.27;6.93;;;6.10;86.50;;;;;;4992980;28;20034;-86
2021/05/06 01:11:48;;;;;;;9.40;6.10;;;6.20;86.60;;;;;;4998702;28;20034;-87
2021/05/06 01:14:14;;;;;;;9.57;6.20;;;6.20;87.10;;;;;;4994484;28;20026;-86
2021/05/06 01:16:39;;;;;;;11.00;7.10;;;6.20;86.80;;;;;;4994382;28;20105;-87
2021/05/06 01:19:06;;;;;;;10.20;6.73;;;6.20;86.80;;;;;;4994457;28;20038;-86
2021/05/06 01:21:31;;;;;;;9.63;5.83;;;6.20;86.90;;;;;;4994399;28;20038;-86
2021/05/06 01:23:57;;;;;;;10.57;6.30;;;6.20;87.00;;;;;;4993660;28;20545;-85
2021/05/06 01:28:57;;;;;;;11.07;6.60;;;6.30;87.80;;;;;;4995369;28;20061;-85
2021/05/06 01:31:26;;;;;;;10.47;7.83;;;6.20;87.40;;;;;;4978069;28;20383;-84
2021/05/06 01:34:03;;;;;;;12.17;7.60;;;6.20;87.50;;;;;;4993552;28;20124;-84
2021/05/06 01:36:33;;;;;;;13.40;7.17;;;6.10;87.90;;;;;;4994813;28;20514;-85
2021/05/06 01:41:51;;;;;;;9.50;5.43;;;6.20;88.10;;;;;;4994018;28;20475;-84
2021/05/06 01:44:52;;;;;;;9.73;6.50;;;6.10;87.70;;;;;;4994860;28;20455;-85
2021/05/06 02:00:22;;;;;;;11.37;6.87;;;6.10;88.80;;;;;;4993381;28;20035;-85
2021/05/06 02:02:49;;;;;;;12.55;7.38;;;6.10;88.80;;;;;;4994553;28;20033;-85
2021/05/06 02:05:15;;;;;;;10.33;7.17;;;6.10;89.00;;;;;;4976716;28;20116;-84
2021/05/06 02:07:43;;;;;;;9.80;6.63;;;6.10;88.90;;;;;;4992728;28;20391;-84
2021/05/06 02:10:13;;;;;;;12.93;6.90;;;6.10;88.80;;;;;;4993261;28;20022;-84
2021/05/06 02:12:39;;;;;;;12.57;7.40;;;6.10;89.00;;;;;;4994423;28;20029;-83
2021/05/06 02:15:31;;;;;;;10.70;7.60;;;6.10;89.10;;;;;;4993005;28;20034;-84
2021/05/06 02:17:58;;;;;;;10.57;6.63;;;6.00;89.30;;;;;;4992769;28;20022;-86
2021/05/06 02:20:24;;;;;;;9.23;6.43;;;6.20;90.00;;;;;;4993072;28;20026;-85
2021/05/06 02:22:51;;;;;;;10.57;7.20;;;6.10;89.90;;;;;;4992845;28;20429;-86
2021/05/06 02:25:16;;;;;;;10.87;6.97;;;6.10;89.90;;;;;;4994107;28;20073;-86
2021/05/06 02:27:42;;;;;;;11.97;7.63;;;6.10;90.00;;;;;;4993269;28;20030;-87
2021/05/06 02:30:11;;;;;;;11.17;7.33;;;6.10;89.60;;;;;;4992769;28;20030;-86
2021/05/06 02:32:37;;;;;;;11.00;7.00;;;6.10;90.00;;;;;;4994043;28;20482;-87
2021/05/06 02:35:03;;;;;;;10.50;7.33;;;6.00;90.00;;;;;;4976368;28;20026;-87
2021/05/06 02:37:28;;;;;;;9.70;6.90;;;6.00;90.00;;;;;;4977062;28;20379;-86
2021/05/06 02:39:54;;;;;;;10.50;6.60;;;6.00;89.90;;;;;;4976406;28;20026;-86
2021/05/06 02:42:20;;;;;;;9.70;6.20;;;6.00;90.00;;;;;;4992871;28;20078;-87
2021/05/06 02:44:46;;;;;;;11.63;6.83;;;6.00;90.00;;;;;;4992819;28;20422;-86
2021/05/06 02:47:12;;;;;;;8.00;5.73;;;6.00;90.00;;;;;;4976301;28;20025;-87
2021/05/06 02:49:43;;;;;;;11.50;6.33;;;6.00;90.00;;;;;;4992939;28;20023;-86
2021/05/06 02:52:19;;;;;;;9.80;6.10;;;6.00;90.00;;;;;;4977423;28;20027;-88
2021/05/06 02:54:50;;;;;;;8.27;6.00;;;5.90;90.00;;;;;;4977896;28;20475;-88
2021/05/06 03:02:58;;;;;;;9.67;5.90;;;5.80;89.90;;;;;;4994687;28;20526;-87
2021/05/06 03:05:29;;;;;;;10.20;6.10;;;5.80;90.00;;;;;;4993827;28;20035;-87
2021/05/06 03:21:07;;;;;;;10.48;7.20;;;5.50;89.40;;;;;;4993181;28;20057;-87
2021/05/06 03:23:33;;;;;;;11.27;7.67;;;5.50;89.40;;;;;;4978855;28;20029;-87
2021/05/06 03:25:59;;;;;;;11.90;8.70;;;5.40;89.50;;;;;;4976262;28;20110;-87
2021/05/06 03:28:28;;;;;;;12.73;8.87;;;5.40;89.50;;;;;;4993696;28;20352;-86
2021/05/06 03:41:37;;;;;;;13.02;8.32;;;5.30;89.80;;;;;;4994167;28;20164;-88
2021/05/06 03:41:53;;;;;;;14.13;8.80;;;5.20;90.00;;;;;;4993063;28;20120;-87
2021/05/06 04:27:11;;;;;;;20.08;13.00;;;4.90;90.80;;;;;;5013309;28;20073;-86
2021/05/06 04:37:53;;;;;;;16.13;12.37;;;5.00;91.30;;;;;;5016128;28;20025;-87
2021/05/06 04:40:56;;;;;;;19.07;12.53;;;5.00;91.40;;;;;;5015145;28;20022;-86
2021/05/06 04:46:34;;;;;;;18.02;12.93;;;5.00;91.60;;;;;;5015558;28;20068;-88
2021/05/06 04:55:04;;;;;;;15.88;11.40;;;5.20;91.70;;;;;;5015475;28;20540;-88
2021/05/06 04:57:39;;;;;;;17.40;12.37;;;5.20;91.60;;;;;;4993643;28;20034;-87
2021/05/06 05:05:33;;;;;;;16.17;11.63;;;5.40;91.90;;;;;;5011767;28;20042;-88
2021/05/06 05:08:08;;;;;;;19.13;13.07;;;5.40;91.90;;;;;;5013780;28;20042;-86
2021/05/06 05:10:50;;;;;;;17.10;12.13;;;5.50;91.80;;;;;;5013725;28;20116;-87
2021/05/06 05:26:51;;;;;;;21.90;14.17;;;5.60;92.00;;;;;;5015134;28;20095;-85
2021/05/06 05:29:17;;;;;;;22.97;15.13;;;5.50;91.70;;;;;;4998270;28;20026;-85
2021/05/06 05:31:43;;;;;;;20.07;14.33;;;5.60;91.70;;;;;;5014682;28;20030;-86
2021/05/06 05:34:42;;;;;;;20.10;14.23;;;5.60;92.00;;;;;;4997281;28;20022;-85
2021/05/06 05:37:01;;;;;;;20.13;14.13;;;5.60;91.70;;;;;;5011708;28;20077;-84
2021/05/06 05:55:27;;;;;;;25.80;17.47;;;5.90;92.00;;;;;;4972443;28;21043;-83
2021/05/06 05:57:53;;;;;;;25.93;18.47;;;5.90;91.90;;;;;;5012875;28;20026;-84
2021/05/06 06:00:19;;;;;;;24.93;18.33;;;6.10;92.00;;;;;;5013186;28;20100;-85
2021/05/06 06:02:45;;;;;;;23.07;16.87;;;6.00;92.00;;;;;;5012436;28;20021;-83
2021/05/06 06:05:11;;;;;;;22.57;17.03;;;6.10;92.20;;;;;;4980077;28;20426;-83
2021/05/06 06:07:37;;;;;;;23.87;18.83;;;6.10;92.20;;;;;;5013985;28;20124;-84
2021/05/06 06:10:04;;;;;;;26.40;19.13;;;6.20;92.20;;;;;;5012244;28;20105;-84
2021/05/06 06:12:29;;;;;;;27.57;20.43;;;6.30;92.20;;;;;;4981130;28;20018;-84
2021/05/06 06:15:06;;;;;;;26.43;19.70;;;6.30;92.30;;;;;;5012692;28;20080;-83
2021/05/06 06:17:40;;;;;;;28.00;21.23;;;6.40;92.30;;;;;;4994990;28;20410;-84
2021/05/06 06:20:06;;;;;;;24.10;18.67;;;6.50;92.30;;;;;;5014424;28;20045;-85
2021/05/06 06:22:32;;;;;;;30.20;22.83;;;6.50;92.20;;;;;;5011899;28;20038;-84
2021/05/06 06:24:58;;;;;;;31.00;23.77;;;6.60;92.40;;;;;;4996343;28;20084;-84
2021/05/06 06:27:24;;;;;;;29.27;23.30;;;6.60;92.20;;;;;;5012774;28;20474;-83
2021/05/06 06:29:50;;;;;;;31.67;24.70;;;6.60;92.20;;;;;;4995965;28;20022;-84
2021/05/06 06:32:17;;;;;;;28.50;21.00;;;6.70;92.20;;;;;;4980314;28;20360;-84
2021/05/06 06:34:43;;;;;;;27.63;20.93;;;6.70;92.20;;;;;;5013483;28;20164;-84
2021/05/06 06:37:08;;;;;;;29.03;20.13;;;6.70;92.30;;;;;;4996508;28;20113;-84
2021/05/06 06:39:39;;;;;;;31.03;22.60;;;6.80;92.30;;;;;;5012757;28;20018;-84
2021/05/06 06:42:07;;;;;;;26.10;20.37;;;6.90;92.40;;;;;;5012608;28;20029;-83
2021/05/06 06:44:34;;;;;;;26.00;19.80;;;6.90;92.10;;;;;;5013613;28;20022;-84
2021/05/06 06:47:03;;;;;;;26.03;18.83;;;7.10;92.10;;;;;;5012057;28;20057;-85
2021/05/06 06:49:31;;;;;;;26.60;19.77;;;7.00;92.00;;;;;;5014160;28;20042;-86
2021/05/06 06:51:58;;;;;;;28.93;19.67;;;7.10;92.00;;;;;;5013836;28;20036;-86
2021/05/06 06:54:25;;;;;;;25.13;19.77;;;7.10;92.00;;;;;;4996041;28;20053;-85
2021/05/06 06:56:51;;;;;;;28.73;19.77;;;7.20;92.00;;;;;;4995846;28;20088;-85
2021/05/06 06:59:17;;;;;;;22.87;18.57;;;7.30;91.90;;;;;;5013787;28;20410;-85
2021/05/06 07:01:43;;;;;;;23.07;18.53;;;7.40;91.90;;;;;;5012973;28;20044;-86
2021/05/06 07:04:09;;;;;;;23.40;17.77;;;7.50;91.90;;;;;;4996542;28;20430;-84
2021/05/06 07:06:35;;;;;;;23.40;17.73;;;7.60;91.90;;;;;;5012139;28;20054;-85
2021/05/06 07:09:00;;;;;;;24.43;17.40;;;7.60;91.80;;;;;;5010990;28;20052;-84
2021/05/06 07:11:26;;;;;;;18.20;14.87;;;7.80;91.70;;;;;;5011138;28;20564;-84
2021/05/06 07:13:52;;;;;;;18.40;13.87;;;7.90;91.50;;;;;;4987024;28;20053;-83
2021/05/06 07:16:17;;;;;;;17.33;12.57;;;8.00;91.30;;;;;;5011742;28;20454;-88
2021/05/06 07:18:43;;;;;;;18.70;12.67;;;8.00;91.10;;;;;;5012778;28;20026;-87
2021/05/06 07:21:09;;;;;;;18.10;12.60;;;8.10;90.90;;;;;;5011865;28;20132;-84
2021/05/06 07:23:35;;;;;;;15.37;11.17;;;8.10;90.70;;;;;;4995048;28;20120;-82
2021/05/06 07:26:02;;;;;;;17.50;10.90;;;8.20;90.50;;;;;;4994773;28;20042;-83
2021/05/06 07:28:42;;;;;;;13.93;10.50;;;8.30;90.60;;;;;;4995338;28;20129;-83
2021/05/06 07:31:10;;;;;;;15.10;8.80;;;8.40;90.60;;;;;;5012904;28;20029;-84
2021/05/06 07:33:36;;;;;;;13.83;9.07;;;8.60;90.40;;;;;;5011882;28;20014;-83
2021/05/06 07:36:03;;;;;;;12.87;9.13;;;8.60;90.10;;;;;;4995488;28;20420;-85
2021/05/06 07:38:31;;;;;;;13.13;9.17;;;8.60;89.80;;;;;;4995210;28;20037;-86
2021/05/06 07:41:00;;;;;;;11.33;7.97;;;8.60;89.20;;;;;;4998821;28;20026;-84
2021/05/06 07:43:27;;;;;;;10.17;6.97;;;8.70;88.60;;;;;;5015758;28;20026;-83
2021/05/06 07:45:53;;;;;;;10.23;6.30;;;8.70;88.80;;;;;;4999386;28;20513;-83
2021/05/06 07:48:19;;;;;;;9.70;6.47;;;8.80;88.70;;;;;;4982591;28;20037;-83
2021/05/06 07:50:45;;;;;;;8.70;5.67;;;8.90;88.40;;;;;;5015455;28;20029;-84
2021/05/06 07:53:20;;;;;;;10.07;6.10;;;9.00;88.10;;;;;;5015135;28;20029;-83
2021/05/06 07:55:46;;;;;;;9.33;5.47;;;9.10;87.90;;;;;;5015384;28;20057;-83
2021/05/06 07:58:12;;;;;;;10.93;6.07;;;9.20;87.10;;;;;;4982890;28;20057;-84
2021/05/06 08:00:38;;;;;;;7.77;4.83;;;9.30;86.00;;;;;;5016167;28;20427;-81
2021/05/06 08:03:06;;;;;;;7.63;4.87;;;9.40;86.10;;;;;;4998232;28;20117;-82
2021/05/06 08:05:32;;;;;;;8.47;4.90;;;9.50;85.70;;;;;;5016387;28;20471;-82
2021/05/06 08:07:57;;;;;;;7.77;4.17;;;9.60;85.10;;;;;;4982393;28;20134;-82
2021/05/06 08:10:24;;;;;;;8.50;5.27;;;9.60;84.80;;;;;;5014509;28;20116;-82
2021/05/06 08:12:50;;;;;;;8.50;5.60;;;9.70;83.70;;;;;;5015014;28;20018;-82
2021/05/06 08:15:16;;;;;;;9.43;5.57;;;9.70;83.10;;;;;;5015752;28;20048;-82
2021/05/06 08:17:42;;;;;;;7.23;5.00;;;9.70;82.90;;;;;;5015797;28;20030;-81
2021/05/06 08:20:12;;;;;;;9.77;5.80;;;9.70;82.80;;;;;;5015224;28;20030;-81
2021/05/06 08:22:38;;;;;;;8.70;5.00;;;9.70;82.10;;;;;;5014308;28;20044;-82
2021/05/06 08:25:06;;;;;;;9.03;6.17;;;9.80;82.40;;;;;;4998581;28;20028;-82
2021/05/06 08:27:32;;;;;;;11.43;8.07;;;9.80;81.70;;;;;;4998092;28;20033;-81
2021/05/06 08:29:59;;;;;;;10.50;6.40;;;9.80;81.30;;;;;;5014622;28;20022;-86
2021/05/06 08:32:24;;;;;;;13.03;7.23;;;10.00;81.00;;;;;;5014342;28;20017;-83
2021/05/06 08:34:50;;;;;;;9.53;7.20;;;9.90;80.70;;;;;;4998196;28;20455;-85
2021/05/06 08:37:16;;;;;;;8.93;6.00;;;9.90;80.70;;;;;;5014737;28;20455;-87
2021/05/06 08:39:42;;;;;;;9.77;6.80;;;9.90;79.60;;;;;;5014160;28;20391;-86
2021/05/06 08:42:09;;;;;;;9.97;5.93;;;10.10;80.10;;;;;;4998690;28;20100;-87
2021/05/06 08:44:37;;;;;;;10.17;6.20;;;10.10;80.00;;;;;;5015433;28;20370;-87
2021/05/06 08:47:05;;;;;;;8.63;6.20;;;10.20;79.90;;;;;;5015198;28;20026;-86
2021/05/06 08:49:32;;;;;;;10.03;6.10;;;10.30;78.90;;;;;;5016324;28;20028;-86
2021/05/06 08:52:03;;;;;;;10.83;7.00;;;10.30;78.30;;;;;;4997205;28;20030;-86
2021/05/06 08:54:29;;;;;;;12.20;7.70;;;10.40;77.40;;;;;;5014587;28;20022;-89
2021/05/06 08:56:56;;;;;;;12.80;7.93;;;10.40;76.70;;;;;;4999656;28;20343;-92
2021/05/06 08:59:21;;;;;;;12.53;8.07;;;10.40;76.50;;;;;;5016404;28;20013;-90
2021/05/06 09:01:48;;;;;;;11.80;7.87;;;10.40;76.30;;;;;;4999299;28;20030;-90
2021/05/06 09:04:14;;;;;;;14.40;7.90;;;10.50;76.30;;;;;;4999866;28;20064;-90
2021/05/06 09:07:00;;;;;;;11.23;7.80;;;10.60;76.20;;;;;;5014738;28;20046;-88
2021/05/06 09:09:28;;;;;;;12.10;7.67;;;10.60;76.20;;;;;;5016778;28;20077;-87
2021/05/06 09:11:56;;;;;;;9.03;6.33;;;10.60;75.60;;;;;;5014469;28;20383;-88
2021/05/06 09:14:34;;;;;;;11.90;7.73;;;10.60;75.70;;;;;;5015067;28;20077;-88
2021/05/06 09:16:59;;;;;;;12.20;7.87;;;10.70;74.40;;;;;;5015964;28;20033;-88
2021/05/06 09:19:25;;;;;;;13.47;7.37;;;10.80;73.90;;;;;;4982012;28;20026;-87
2021/05/06 09:21:51;;;;;;;12.90;7.67;;;10.80;73.60;;;;;;4999280;28;20042;-88
2021/05/06 09:26:55;;;;;;;11.52;7.57;;;11.10;72.90;;;;;;5016945;28;20026;-88
2021/05/06 09:29:32;;;;;;;10.02;5.80;;;11.20;71.90;;;;;;5016234;28;20026;-88
2021/05/06 09:32:27;;;;;;;10.67;6.20;;;11.20;70.10;;;;;;5015333;28;20410;-87
2021/05/06 09:34:53;;;;;;;10.27;6.47;;;11.20;69.30;;;;;;4998127;28;20479;-87
2021/05/06 09:37:29;;;;;;;12.10;6.65;;;11.30;69.30;;;;;;5015640;28;20108;-87
2021/05/06 09:40:08;;;;;;;9.40;5.95;;;11.40;69.00;;;;;;5014946;28;20014;-87
2021/05/06 09:42:48;;;;;;;9.65;6.25;;;11.60;68.60;;;;;;5015994;28;20030;-88
2021/05/06 09:45:22;;;;;;;10.30;6.72;;;11.70;66.90;;;;;;5012738;28;20018;-89
2021/05/06 09:48:11;;;;;;;11.45;5.97;;;11.80;66.80;;;;;;5012955;28;20056;-88
2021/05/06 09:50:41;;;;;;;9.32;6.05;;;12.00;66.90;;;;;;5013880;28;20048;-87
2021/05/06 09:53:18;;;;;;;9.75;7.07;;;12.10;65.00;;;;;;5014640;28;20022;-87
2021/05/06 09:55:48;;;;;;;9.75;6.60;;;12.20;64.90;;;;;;5010980;28;20064;-87
2021/05/06 09:58:26;;;;;;;10.40;6.47;;;12.20;64.30;;;;;;4997388;28;20029;-88
2021/05/06 10:00:52;;;;;;;10.02;7.13;;;12.30;64.20;;;;;;5012927;28;20056;-85
2021/05/06 10:03:38;;;;;;;10.68;7.15;;;12.20;64.40;;;;;;5014610;28;20022;-87
2021/05/06 10:06:19;;;;;;;14.07;7.10;;;12.30;63.80;;;;;;4993951;28;20034;-87
2021/05/06 10:08:46;;;;;;;10.30;6.80;;;12.30;63.30;;;;;;5010991;28;20042;-89
2021/05/06 10:11:13;;;;;;;11.45;6.97;;;12.30;64.00;;;;;;5013278;28;20037;-87
2021/05/06 10:13:41;;;;;;;10.02;6.63;;;12.40;64.10;;;;;;5017944;28;20014;-89
2021/05/06 10:16:08;;;;;;;8.82;6.05;;;12.50;63.30;;;;;;5022443;28;20040;-87
2021/05/06 10:18:37;;;;;;;9.65;6.00;;;12.70;62.80;;;;;;5017169;28;20014;-88
2021/05/06 10:21:03;;;;;;;8.82;5.70;;;12.80;61.80;;;;;;5013015;28;20034;-86
2021/05/06 10:23:29;;;;;;;9.48;5.78;;;12.80;61.30;;;;;;4997433;28;20022;-89
2021/05/06 10:25:55;;;;;;;8.32;5.15;;;13.10;62.00;;;;;;4997359;28;20026;-89
2021/05/06 10:28:23;;;;;;;9.27;5.95;;;13.30;62.30;;;;;;4999454;28;20028;-88
2021/05/06 10:30:49;;;;;;;9.52;6.03;;;13.70;62.20;;;;;;5015042;28;20025;-87
2021/05/06 10:33:20;;;;;;;7.72;5.10;;;14.00;60.40;;;;;;4980467;28;20117;-88
2021/05/06 10:35:46;;;;;;;7.55;4.50;;;14.20;59.40;;;;;;5014282;28;20101;-86
2021/05/06 10:38:11;;;;;;;5.82;3.70;;;14.40;59.50;;;;;;4996902;28;20129;-86
2021/05/06 10:40:40;;;;;;;8.18;4.78;;;14.70;57.30;;;;;;5013757;28;20030;-88
2021/05/06 10:43:19;;;;;;;8.73;3.75;;;15.00;56.20;;;;;;4981593;28;20064;-89
2021/05/06 10:45:59;;;;;;;6.40;3.90;;;15.60;56.70;;;;;;5014105;28;20462;-90
2021/05/06 10:48:54;;;;;;;5.30;3.30;;;16.20;55.00;;;;;;5014738;28;20105;-88
2021/05/06 10:51:26;;;;;;;;;;;16.50;53.70;;;;;;5016576;28;20024;-89
2021/05/06 10:53:51;;;;;;;6.00;3.28;;;16.90;54.10;;;;;;5014297;28;19907;-87
2021/05/06 10:56:17;;;;;;;6.22;3.30;;;16.90;54.30;;;;;;5013586;28;20026;-90
2021/05/06 10:58:43;;;;;;;5.32;3.25;;;17.30;53.50;;;;;;5013438;28;20445;-90
2021/05/06 11:01:14;;;;;;;6.80;4.07;;;18.00;52.00;;;;;;5013070;28;20045;-89
2021/05/06 11:03:41;;;;;;;10.40;5.20;;;18.30;49.50;;;;;;5012382;28;20017;-88
2021/05/06 11:06:08;;;;;;;7.85;5.47;;;18.10;46.50;;;;;;5013707;28;20076;-86
2021/05/06 11:08:35;;;;;;;5.50;3.80;;;17.90;47.40;;;;;;5032238;28;20136;-90
2021/05/06 11:11:01;;;;;;;4.47;2.72;;;18.00;47.30;;;;;;5037121;28;20057;-90
2021/05/06 11:13:30;;;;;;;4.65;2.80;;;18.20;46.20;;;;;;5033424;28;20029;-88
2021/05/06 11:16:15;;;;;;;3.47;2.30;;;18.40;46.60;;;;;;5037667;28;20021;-88
2021/05/06 11:18:48;;;;;;;5.35;2.80;;;18.60;46.30;;;;;;5036697;28;20023;-89
2021/05/06 11:21:29;;;;;;;4.65;2.75;;;18.90;45.90;;;;;;5015626;28;20029;-88
2021/05/06 11:24:11;;;;;;;5.15;2.30;;;19.10;44.50;;;;;;5014424;28;20026;-90
2021/05/06 11:26:57;;;;;;;4.05;2.38;;;19.40;44.70;;;;;;5015395;28;20028;-88
2021/05/06 11:29:28;;;;;;;2.80;1.50;;;19.90;44.70;;;;;;5016444;28;20050;-87
2021/05/06 11:31:54;;;;;;;2.40;1.30;;;20.30;44.20;;;;;;5017894;28;20034;-91
2021/05/06 11:34:41;;;;;;;2.42;1.35;;;20.40;41.20;;;;;;5016487;28;20022;-91
2021/05/06 11:37:18;;;;;;;4.15;1.52;;;20.50;41.20;;;;;;5016744;28;20049;-89
2021/05/06 11:40:04;;;;;;;2.50;1.25;;;20.70;41.70;;;;;;5016902;28;20462;-91
2021/05/06 11:42:37;;;;;;;3.03;1.85;;;21.00;41.20;;;;;;5016004;28;20540;-89
2021/05/06 11:45:06;;;;;;;4.50;3.25;;;21.10;41.60;;;;;;5023163;28;20029;-91
2021/05/06 11:47:31;;;;;;;4.50;2.95;;;21.00;40.80;;;;;;5017743;28;20421;-90
2021/05/06 11:49:57;;;;;;;6.05;3.85;;;20.90;41.30;;;;;;5018524;28;20030;-91
2021/05/06 11:52:35;;;;;;;5.10;3.40;;;20.80;40.70;;;;;;5016104;28;20030;-90
2021/05/06 11:55:00;;;;;;;5.85;3.88;;;20.70;40.50;;;;;;4998344;28;20053;-88
2021/05/06 11:57:27;;;;;;;4.85;3.35;;;20.60;40.90;;;;;;4983752;28;20522;-89
2021/05/06 11:59:53;;;;;;;4.85;3.33;;;20.60;40.20;;;;;;5000517;28;20121;-87
2021/05/06 12:02:24;;;;;;;5.90;3.47;;;20.40;40.00;;;;;;5016501;28;20049;-90
2021/05/06 12:04:54;;;;;;;5.05;3.45;;;20.40;40.20;;;;;;5014778;28;20075;-91
2021/05/06 12:07:22;;;;;;;5.85;3.50;;;20.50;39.90;;;;;;5015989;28;20017;-90
2021/05/06 12:09:51;;;;;;;3.72;2.83;;;20.50;39.90;;;;;;5016757;28;20037;-85
2021/05/06 12:12:24;;;;;;;4.78;2.88;;;20.60;39.30;;;;;;5015469;28;20018;-86
2021/05/06 12:14:49;;;;;;;3.25;2.53;;;20.60;38.70;;;;;;4999538;28;20026;-87
2021/05/06 12:17:19;;;;;;;3.88;2.63;;;20.50;38.40;;;;;;5000681;28;20029;-90
2021/05/06 12:19:47;;;;;;;4.32;3.08;;;20.20;38.50;;;;;;5016385;28;20033;-88
2021/05/06 12:22:14;;;;;;;5.97;3.42;;;20.00;38.80;;;;;;5015091;28;20065;-89
2021/05/06 12:24:45;;;;;;;3.13;1.83;;;19.60;38.90;;;;;;5016692;28;20025;-84
2021/05/06 12:27:17;;;;;;;3.17;1.10;;;19.30;39.60;;;;;;5014975;28;20018;-90
2021/05/06 12:29:44;;;;;;;2.83;1.38;;;19.00;40.50;;;;;;5000446;28;20026;-89
2021/05/06 12:32:20;;;;;;;3.15;1.20;;;18.70;41.20;;;;;;5011158;28;20030;-85
2021/05/06 12:34:46;;;;;;;3.25;1.42;;;18.20;41.70;;;;;;4997329;28;20021;-89
2021/05/06 12:37:13;;;;;;;3.30;1.65;;;17.90;42.30;;;;;;5014479;28;20018;-89
2021/05/06 12:39:45;;;;;;;2.60;1.30;;;17.60;42.90;;;;;;5016079;28;20022;-85
2021/05/06 12:42:11;;;;;;;4.85;1.45;;;17.30;43.50;;;;;;5016299;28;20041;-88
2021/05/06 12:44:45;;;;;;;3.20;1.25;;;17.10;44.10;;;;;;5005362;28;20014;-90
2021/05/06 12:47:10;;;;;;;3.30;1.52;;;17.00;44.80;;;;;;5020780;28;20030;-84
2021/05/06 12:49:36;;;;;;;2.63;1.35;;;16.90;45.30;;;;;;5017495;28;20022;-86
2021/05/06 12:52:01;;;;;;;3.42;1.60;;;16.90;45.60;;;;;;5010307;28;20034;-89
2021/05/06 12:54:34;;;;;;;3.45;1.50;;;16.80;45.80;;;;;;4995157;28;20057;-90
2021/05/06 12:57:13;;;;;;;5.82;1.45;;;16.70;46.30;;;;;;5011722;28;20026;-90
2021/05/06 12:59:39;;;;;;;3.03;1.58;;;16.80;46.80;;;;;;5015443;28;20088;-92
2021/05/06 13:02:09;;;;;;;4.18;1.77;;;16.80;47.10;;;;;;4998999;28;20030;-87
2021/05/06 13:04:50;;;;;;;3.90;1.88;;;16.90;47.40;;;;;;4998676;28;20032;-89
2021/05/06 13:07:17;;;;;;;3.08;1.55;;;17.00;47.60;;;;;;5013612;28;20430;-87
2021/05/06 13:09:46;;;;;;;4.22;1.60;;;17.20;47.80;;;;;;4997210;28;20386;-86
2021/05/06 13:12:18;;;;;;;2.97;1.55;;;17.40;47.80;;;;;;5013408;28;20026;-86
2021/05/06 13:15:00;;;;;;;4.80;1.40;;;17.50;48.00;;;;;;5014121;28;20033;-86
2021/05/06 13:17:28;;;;;;;4.32;2.03;;;17.70;48.00;;;;;;5013854;28;20398;-86
2021/05/06 13:19:56;;;;;;;2.70;1.48;;;17.90;47.90;;;;;;5021107;28;20034;-91
2021/05/06 13:22:23;;;;;;;3.13;1.70;;;18.00;47.80;;;;;;5028046;28;20037;-91
2021/05/06 13:24:51;;;;;;;3.30;1.65;;;18.10;47.80;;;;;;5018344;28;20022;-87
2021/05/06 13:27:22;;;;;;;3.45;1.63;;;18.20;47.80;;;;;;5001124;28;20025;-94
2021/05/06 13:29:56;;;;;;;4.47;2.13;;;18.30;47.80;;;;;;5017598;28;20021;-92
2021/05/06 13:32:35;;;;;;;5.47;2.03;;;18.50;47.90;;;;;;5016893;28;20029;-92
2021/05/06 13:35:02;;;;;;;3.88;2.35;;;18.50;47.60;;;;;;5017242;28;20030;-93
2021/05/06 13:37:43;;;;;;;3.58;2.25;;;18.50;47.40;;;;;;4999117;28;20018;-91
2021/05/06 13:40:10;;;;;;;3.17;1.90;;;18.40;47.10;;;;;;5015210;28;20022;-92
2021/05/06 13:42:36;;;;;;;4.40;2.67;;;18.40;47.10;;;;;;4999344;28;20382;-90
2021/05/06 13:45:04;;;;;;;3.63;2.53;;;18.20;46.90;;;;;;5015880;28;20026;-90
2021/05/06 13:47:29;;;;;;;4.10;2.38;;;18.10;46.80;;;;;;5015451;28;20026;-93
2021/05/06 13:49:55;;;;;;;3.70;2.25;;;18.00;46.70;;;;;;4998344;28;20041;-88
2021/05/06 13:52:24;;;;;;;4.22;2.40;;;18.00;46.70;;;;;;4981549;28;20053;-92
2021/05/06 13:54:50;;;;;;;3.85;2.10;;;17.80;46.30;;;;;;5016335;28;20053;-92
2021/05/06 13:57:17;;;;;;;3.90;2.50;;;17.70;46.30;;;;;;4998506;28;20022;-94
2021/05/06 13:59:42;;;;;;;4.57;2.58;;;17.70;46.20;;;;;;4998993;28;20371;-92
2021/05/06 14:02:11;;;;;;;4.40;2.40;;;17.50;46.00;;;;;;5017028;28;20044;-95
2021/05/06 14:04:37;;;;;;;4.63;2.40;;;17.40;45.90;;;;;;5019966;28;20022;-96
2021/05/06 14:07:03;;;;;;;3.97;2.42;;;17.30;46.00;;;;;;5006938;28;20089;-94
2021/05/06 14:09:28;;;;;;;3.88;2.58;;;17.10;46.00;;;;;;5016955;28;20057;-92
2021/05/06 14:11:54;;;;;;;5.43;3.45;;;17.00;46.00;;;;;;4998611;28;20049;-92
2021/05/06 14:14:20;;;;;;;5.05;2.80;;;16.80;45.90;;;;;;5015421;28;20041;-89
2021/05/06 14:16:46;;;;;;;3.63;2.53;;;16.70;46.00;;;;;;5015651;28;20026;-90
2021/05/06 14:19:13;;;;;;;5.10;2.65;;;16.50;46.10;;;;;;4998061;28;20017;-91
2021/05/06 14:21:40;;;;;;;5.18;2.70;;;16.30;46.30;;;;;;5015096;28;20042;-90
2021/05/06 14:24:06;;;;;;;4.82;3.05;;;16.10;46.70;;;;;;5004438;28;20466;-94
2021/05/06 14:26:32;;;;;;;4.38;2.72;;;16.00;46.70;;;;;;5014145;28;20022;-86
2021/05/06 14:28:58;;;;;;;7.55;3.17;;;15.90;47.00;;;;;;5016196;28;20113;-86
2021/05/06 14:31:24;;;;;;;5.40;3.03;;;15.80;47.30;;;;;;5014469;28;20021;-93
2021/05/06 14:33:50;;;;;;;4.80;2.85;;;15.80;47.00;;;;;;4983021;28;20482;-92
2021/05/06 14:36:16;;;;;;;5.65;3.00;;;15.70;47.20;;;;;;4997725;28;20493;-91
2021/05/06 14:38:43;;;;;;;6.55;3.28;;;15.60;47.20;;;;;;5014760;28;20026;-88
2021/05/06 14:41:09;;;;;;;4.07;2.45;;;15.70;47.40;;;;;;5014496;28;20044;-90
2021/05/06 14:43:36;;;;;;;3.50;2.53;;;15.60;47.40;;;;;;5014221;28;20021;-90
2021/05/06 14:46:02;;;;;;;4.25;2.50;;;15.50;47.40;;;;;;5014402;28;20026;-90
2021/05/06 14:48:28;;;;;;;4.68;2.72;;;15.50;47.70;;;;;;5013429;28;20049;-88
2021/05/06 14:50:55;;;;;;;5.05;2.47;;;15.50;47.80;;;;;;5017421;28;20336;-89
2021/05/06 14:53:20;;;;;;;5.22;3.05;;;15.50;47.90;;;;;;5033915;28;20033;-91
2021/05/06 14:55:46;;;;;;;4.72;3.03;;;15.50;47.80;;;;;;5035005;28;20374;-91
2021/05/06 14:58:12;;;;;;;4.50;3.10;;;15.50;47.80;;;;;;5001526;28;20025;-89
2021/05/06 15:00:38;;;;;;;5.32;3.40;;;15.50;47.90;;;;;;5018576;28;20045;-90
2021/05/06 15:03:04;;;;;;;5.32;3.15;;;15.60;48.10;;;;;;5030475;28;20021;-89
2021/05/06 15:05:30;;;;;;;7.00;3.33;;;15.60;48.00;;;;;;5036621;28;20025;-90
2021/05/06 15:07:57;;;;;;;7.22;3.75;;;15.60;48.00;;;;;;5000832;28;20057;-90
2021/05/06 15:10:23;;;;;;;5.05;3.45;;;15.60;48.00;;;;;;4990938;28;20042;-88
2021/05/06 15:12:49;;;;;;;5.03;3.20;;;15.50;48.00;;;;;;4995781;28;20025;-87
2021/05/06 15:15:16;;;;;;;5.18;3.42;;;15.60;47.90;;;;;;5013789;28;20049;-90
2021/05/06 15:17:43;;;;;;;6.93;3.60;;;15.60;47.80;;;;;;5013095;28;20049;-91
2021/05/06 15:20:10;;;;;;;4.60;3.15;;;15.50;47.70;;;;;;5013413;28;20022;-90
2021/05/06 15:22:36;;;;;;;5.25;3.50;;;15.60;47.80;;;;;;5013248;28;20467;-90
2021/05/06 15:25:03;;;;;;;4.30;3.28;;;15.60;47.80;;;;;;5014176;28;20057;-90
2021/05/06 15:27:29;;;;;;;4.70;3.08;;;15.60;47.80;;;;;;5013988;28;20026;-88
2021/05/06 15:29:54;;;;;;;4.93;3.40;;;15.70;47.80;;;;;;4996733;28;20140;-90
2021/05/06 15:32:20;;;;;;;4.70;3.20;;;15.70;47.80;;;;;;4995963;28;20030;-88
2021/05/06 15:34:47;;;;;;;4.93;3.70;;;15.70;47.90;;;;;;4996295;28;20404;-93
2021/05/06 15:37:13;;;;;;;6.05;3.78;;;15.60;47.80;;;;;;4996989;28;20079;-92
2021/05/06 15:39:39;;;;;;;6.38;3.65;;;15.70;47.30;;;;;;5012864;28;20120;-92
2021/05/06 15:42:05;;;;;;;4.70;2.83;;;15.80;47.40;;;;;;5012926;28;20084;-94
2021/05/06 15:44:31;;;;;;;5.47;3.58;;;15.90;47.30;;;;;;5014862;28;20029;-92
2021/05/06 15:47:01;;;;;;;6.13;3.40;;;15.90;46.90;;;;;;5013609;28;20034;-92
2021/05/06 15:49:35;;;;;;;6.72;3.08;;;15.80;46.70;;;;;;5019109;28;20042;-91
2021/05/06 15:52:02;;;;;;;;;;;15.60;46.80;;;;;;5028541;28;20021;-91
2021/05/06 15:54:28;;;;;;;4.45;2.58;;;15.50;47.10;;;;;;5000750;28;19928;-91
2021/05/06 15:56:54;;;;;;;4.57;2.72;;;15.40;47.30;;;;;;5014348;28;20501;-92
2021/05/06 15:59:21;;;;;;;5.40;3.00;;;15.30;47.60;;;;;;4998148;28;20025;-93
2021/05/06 16:01:48;;;;;;;6.28;3.08;;;15.00;47.40;;;;;;5015684;28;20547;-92
2021/05/06 16:04:17;;;;;;;6.53;3.33;;;14.80;47.60;;;;;;5007488;28;20090;-90
2021/05/06 16:06:42;;;;;;;6.88;3.55;;;14.60;47.90;;;;;;4998923;28;20026;-93
2021/05/06 16:09:08;;;;;;;6.30;3.45;;;14.40;48.30;;;;;;5011823;28;20103;-88